Main page
METAR-TAF:

METAR-TAF

Airports :

Leuchars Station

Leuchars, Scotland

latitude: 56-23N, longitude: 002-52W, elevation: 12 m

Current weather observation

The report was made 48 minutes ago, at 03:50 UTC
Wind 4 kt from the Northwest
Temperature 5°C
Humidity 93%
Pressure 993 hPa
Visibility 10 km or more
no clouds below 1500 m and no cumulonimbus

METAR: EGQL 240350Z 32004KT CAVOK 05/04 Q0993 BLU

Time: 05:38 (04:38 UTC)

Forecast

The report was made 2 hours and 48 minutes ago, at 01:50 UTC
Forecast valid from 24 at 03 UTC to 24 at 12 UTC
Wind 5 kt from the West/Northwest
Visibility 10 km or more
Few clouds at a height of 3000 ft
Probability 30% :
Temporary
from 24 at 09 UTC to 24 at 12 UTC
Scattered clouds at a height of 2400 ft
light rain showers

TAF: EGQL 240150Z 2403/2412 30005KT 9999 FEW030 PROB30 TEMPO 2409/2412 -SHRA SCT024

Weather observations and forecasts of more than 4000 airports (METAR and TAF reports).

The available stations are represented by yellow and red dots on the map.

Hover mouse over dot to see the name of the station.

Then click to see weather observations and forecasts.

To change the map : click on the green buttons with a black cross to zoom in, on the green button with a dash to zoom out, or on the green arrows for adjacent maps.


METAR-TAF: